sensor_id;sensor_type;location;lat;lon;timestamp;P1;durP1;ratioP1;P2;durP2;ratioP2
58250;SDS011;51449;51.676;5.812;2023-05-10T00:01:26;26.13;;;16.67;;
58250;SDS011;51449;51.676;5.812;2023-05-10T00:03:48;25.20;;;15.23;;
58250;SDS011;51449;51.676;5.812;2023-05-10T00:06:10;27.80;;;16.47;;
58250;SDS011;51449;51.676;5.812;2023-05-10T00:08:33;28.30;;;16.53;;
58250;SDS011;51449;51.676;5.812;2023-05-10T00:10:55;28.87;;;16.53;;
58250;SDS011;51449;51.676;5.812;2023-05-10T00:13:16;25.63;;;15.90;;
58250;SDS011;51449;51.676;5.812;2023-05-10T00:15:38;24.83;;;15.53;;
58250;SDS011;51449;51.676;5.812;2023-05-10T00:18:00;24.53;;;15.60;;
58250;SDS011;51449;51.676;5.812;2023-05-10T00:20:22;26.37;;;16.13;;
58250;SDS011;51449;51.676;5.812;2023-05-10T00:22:44;25.17;;;15.90;;
58250;SDS011;51449;51.676;5.812;2023-05-10T00:25:05;27.20;;;16.10;;
58250;SDS011;51449;51.676;5.812;2023-05-10T00:27:28;25.53;;;16.37;;
58250;SDS011;51449;51.676;5.812;2023-05-10T00:29:50;27.53;;;16.33;;
58250;SDS011;51449;51.676;5.812;2023-05-10T00:32:12;25.57;;;15.93;;
58250;SDS011;51449;51.676;5.812;2023-05-10T00:34:35;25.57;;;16.10;;
58250;SDS011;51449;51.676;5.812;2023-05-10T00:36:57;25.20;;;14.67;;
58250;SDS011;51449;51.676;5.812;2023-05-10T00:39:19;26.87;;;15.37;;
58250;SDS011;51449;51.676;5.812;2023-05-10T00:41:41;26.13;;;15.90;;
58250;SDS011;51449;51.676;5.812;2023-05-10T00:44:02;27.50;;;16.63;;
58250;SDS011;51449;51.676;5.812;2023-05-10T00:46:25;28.10;;;16.57;;
58250;SDS011;51449;51.676;5.812;2023-05-10T00:48:48;26.20;;;16.20;;
58250;SDS011;51449;51.676;5.812;2023-05-10T00:51:11;27.65;;;16.27;;
58250;SDS011;51449;51.676;5.812;2023-05-10T00:53:35;29.70;;;17.43;;
58250;SDS011;51449;51.676;5.812;2023-05-10T00:55:56;29.27;;;16.70;;
58250;SDS011;51449;51.676;5.812;2023-05-10T00:58:18;27.57;;;16.63;;
58250;SDS011;51449;51.676;5.812;2023-05-10T01:00:41;33.60;;;18.27;;
58250;SDS011;51449;51.676;5.812;2023-05-10T01:03:06;28.07;;;16.27;;
58250;SDS011;51449;51.676;5.812;2023-05-10T01:05:28;31.90;;;18.13;;
58250;SDS011;51449;51.676;5.812;2023-05-10T01:07:51;26.87;;;16.60;;
58250;SDS011;51449;51.676;5.812;2023-05-10T01:10:13;33.47;;;19.00;;
58250;SDS011;51449;51.676;5.812;2023-05-10T01:12:36;30.73;;;17.67;;
58250;SDS011;51449;51.676;5.812;2023-05-10T01:15:02;29.77;;;16.83;;
58250;SDS011;51449;51.676;5.812;2023-05-10T01:17:26;30.85;;;17.48;;
58250;SDS011;51449;51.676;5.812;2023-05-10T01:19:48;32.70;;;16.83;;
58250;SDS011;51449;51.676;5.812;2023-05-10T01:28:19;29.57;;;17.23;;
58250;SDS011;51449;51.676;5.812;2023-05-10T01:31:30;30.27;;;17.60;;
58250;SDS011;51449;51.676;5.812;2023-05-10T01:34:17;29.63;;;17.17;;
58250;SDS011;51449;51.676;5.812;2023-05-10T01:36:51;28.43;;;16.60;;
58250;SDS011;51449;51.676;5.812;2023-05-10T01:39:43;29.77;;;17.90;;
58250;SDS011;51449;51.676;5.812;2023-05-10T01:42:12;34.37;;;17.57;;
58250;SDS011;51449;51.676;5.812;2023-05-10T01:44:56;30.47;;;17.30;;
58250;SDS011;51449;51.676;5.812;2023-05-10T01:47:35;38.00;;;18.70;;
58250;SDS011;51449;51.676;5.812;2023-05-10T01:50:04;35.13;;;18.10;;
58250;SDS011;51449;51.676;5.812;2023-05-10T01:52:38;37.43;;;19.33;;
58250;SDS011;51449;51.676;5.812;2023-05-10T01:55:07;36.83;;;18.73;;
58250;SDS011;51449;51.676;5.812;2023-05-10T01:57:35;35.93;;;18.90;;
58250;SDS011;51449;51.676;5.812;2023-05-10T02:00:03;39.10;;;20.17;;
58250;SDS011;51449;51.676;5.812;2023-05-10T02:02:38;38.43;;;20.67;;
58250;SDS011;51449;51.676;5.812;2023-05-10T02:05:05;39.10;;;20.23;;
58250;SDS011;51449;51.676;5.812;2023-05-10T02:07:28;43.63;;;20.53;;
58250;SDS011;51449;51.676;5.812;2023-05-10T02:09:52;40.47;;;21.17;;
58250;SDS011;51449;51.676;5.812;2023-05-10T02:12:16;40.90;;;20.63;;
58250;SDS011;51449;51.676;5.812;2023-05-10T02:14:40;41.80;;;21.88;;
58250;SDS011;51449;51.676;5.812;2023-05-10T02:17:04;41.22;;;22.20;;
58250;SDS011;51449;51.676;5.812;2023-05-10T02:19:30;43.23;;;21.33;;
58250;SDS011;51449;51.676;5.812;2023-05-10T02:21:55;42.17;;;22.90;;
58250;SDS011;51449;51.676;5.812;2023-05-10T02:24:18;46.37;;;23.70;;
58250;SDS011;51449;51.676;5.812;2023-05-10T02:26:42;48.58;;;25.05;;
58250;SDS011;51449;51.676;5.812;2023-05-10T02:29:08;45.13;;;24.70;;
58250;SDS011;51449;51.676;5.812;2023-05-10T02:31:33;46.27;;;25.10;;
58250;SDS011;51449;51.676;5.812;2023-05-10T02:33:58;50.70;;;25.97;;
58250;SDS011;51449;51.676;5.812;2023-05-10T02:38:45;48.57;;;25.20;;
58250;SDS011;51449;51.676;5.812;2023-05-10T02:41:11;51.20;;;27.20;;
58250;SDS011;51449;51.676;5.812;2023-05-10T02:43:35;53.75;;;27.00;;
58250;SDS011;51449;51.676;5.812;2023-05-10T02:46:01;59.17;;;29.93;;
58250;SDS011;51449;51.676;5.812;2023-05-10T02:48:23;63.07;;;30.27;;
58250;SDS011;51449;51.676;5.812;2023-05-10T02:50:45;62.83;;;30.43;;
58250;SDS011;51449;51.676;5.812;2023-05-10T02:53:18;66.10;;;30.67;;
58250;SDS011;51449;51.676;5.812;2023-05-10T02:55:49;66.93;;;30.83;;
58250;SDS011;51449;51.676;5.812;2023-05-10T02:58:14;67.50;;;29.83;;
58250;SDS011;51449;51.676;5.812;2023-05-10T03:00:35;68.83;;;29.43;;
58250;SDS011;51449;51.676;5.812;2023-05-10T03:02:57;63.80;;;30.47;;
58250;SDS011;51449;51.676;5.812;2023-05-10T03:05:22;67.82;;;29.77;;
58250;SDS011;51449;51.676;5.812;2023-05-10T03:07:44;65.90;;;28.43;;
58250;SDS011;51449;51.676;5.812;2023-05-10T03:10:07;67.27;;;30.53;;
58250;SDS011;51449;51.676;5.812;2023-05-10T03:12:39;72.70;;;31.40;;
58250;SDS011;51449;51.676;5.812;2023-05-10T03:15:30;63.77;;;29.53;;
58250;SDS011;51449;51.676;5.812;2023-05-10T03:18:11;72.30;;;32.23;;
58250;SDS011;51449;51.676;5.812;2023-05-10T03:20:43;67.43;;;30.77;;
58250;SDS011;51449;51.676;5.812;2023-05-10T03:25:41;73.17;;;32.53;;
58250;SDS011;51449;51.676;5.812;2023-05-10T03:28:05;67.50;;;32.03;;
58250;SDS011;51449;51.676;5.812;2023-05-10T03:30:28;78.87;;;34.37;;
58250;SDS011;51449;51.676;5.812;2023-05-10T03:32:51;72.63;;;33.10;;
58250;SDS011;51449;51.676;5.812;2023-05-10T03:35:13;73.90;;;32.47;;
58250;SDS011;51449;51.676;5.812;2023-05-10T03:37:35;70.30;;;32.70;;
58250;SDS011;51449;51.676;5.812;2023-05-10T03:39:57;65.27;;;31.10;;
58250;SDS011;51449;51.676;5.812;2023-05-10T03:42:19;73.60;;;33.97;;
58250;SDS011;51449;51.676;5.812;2023-05-10T03:44:41;72.20;;;32.83;;
58250;SDS011;51449;51.676;5.812;2023-05-10T03:47:03;67.23;;;32.17;;
58250;SDS011;51449;51.676;5.812;2023-05-10T03:49:25;69.73;;;33.30;;
58250;SDS011;51449;51.676;5.812;2023-05-10T03:51:46;71.37;;;33.27;;
58250;SDS011;51449;51.676;5.812;2023-05-10T03:54:11;65.90;;;32.23;;
58250;SDS011;51449;51.676;5.812;2023-05-10T03:56:33;66.80;;;33.30;;
58250;SDS011;51449;51.676;5.812;2023-05-10T03:58:54;64.30;;;31.20;;
58250;SDS011;51449;51.676;5.812;2023-05-10T04:01:16;70.77;;;33.07;;
58250;SDS011;51449;51.676;5.812;2023-05-10T04:03:38;69.93;;;34.00;;
58250;SDS011;51449;51.676;5.812;2023-05-10T04:06:00;69.07;;;32.67;;
58250;SDS011;51449;51.676;5.812;2023-05-10T04:08:23;69.73;;;33.63;;
58250;SDS011;51449;51.676;5.812;2023-05-10T04:10:45;67.17;;;32.87;;
58250;SDS011;51449;51.676;5.812;2023-05-10T04:13:06;64.93;;;33.10;;
58250;SDS011;51449;51.676;5.812;2023-05-10T04:15:28;73.90;;;34.50;;
58250;SDS011;51449;51.676;5.812;2023-05-10T04:17:50;71.43;;;33.97;;
58250;SDS011;51449;51.676;5.812;2023-05-10T04:20:12;69.77;;;33.70;;
58250;SDS011;51449;51.676;5.812;2023-05-10T04:22:35;72.87;;;34.10;;
58250;SDS011;51449;51.676;5.812;2023-05-10T04:24:56;73.57;;;34.90;;
58250;SDS011;51449;51.676;5.812;2023-05-10T04:27:18;71.87;;;34.93;;
58250;SDS011;51449;51.676;5.812;2023-05-10T04:29:40;70.83;;;34.60;;
58250;SDS011;51449;51.676;5.812;2023-05-10T04:32:02;72.80;;;34.07;;
58250;SDS011;51449;51.676;5.812;2023-05-10T04:34:24;67.57;;;33.07;;
58250;SDS011;51449;51.676;5.812;2023-05-10T04:36:46;70.93;;;34.77;;
58250;SDS011;51449;51.676;5.812;2023-05-10T04:39:08;69.70;;;34.17;;
58250;SDS011;51449;51.676;5.812;2023-05-10T04:41:31;67.23;;;32.87;;
58250;SDS011;51449;51.676;5.812;2023-05-10T04:43:52;69.53;;;34.63;;
58250;SDS011;51449;51.676;5.812;2023-05-10T04:46:14;64.10;;;32.30;;
58250;SDS011;51449;51.676;5.812;2023-05-10T04:48:36;63.73;;;32.70;;
58250;SDS011;51449;51.676;5.812;2023-05-10T04:50:58;64.53;;;31.90;;
58250;SDS011;51449;51.676;5.812;2023-05-10T04:53:20;59.70;;;29.63;;
58250;SDS011;51449;51.676;5.812;2023-05-10T04:55:41;57.03;;;29.53;;
58250;SDS011;51449;51.676;5.812;2023-05-10T04:58:03;57.83;;;29.77;;
58250;SDS011;51449;51.676;5.812;2023-05-10T05:00:25;58.00;;;28.57;;
58250;SDS011;51449;51.676;5.812;2023-05-10T05:02:47;57.57;;;28.67;;
58250;SDS011;51449;51.676;5.812;2023-05-10T05:05:09;56.43;;;29.23;;
58250;SDS011;51449;51.676;5.812;2023-05-10T05:07:31;56.50;;;27.70;;
58250;SDS011;51449;51.676;5.812;2023-05-10T05:09:53;53.83;;;27.37;;
58250;SDS011;51449;51.676;5.812;2023-05-10T05:12:15;58.03;;;27.90;;
58250;SDS011;51449;51.676;5.812;2023-05-10T05:14:36;53.00;;;26.80;;
58250;SDS011;51449;51.676;5.812;2023-05-10T05:16:58;55.43;;;27.87;;
58250;SDS011;51449;51.676;5.812;2023-05-10T05:19:20;52.70;;;28.17;;
58250;SDS011;51449;51.676;5.812;2023-05-10T05:21:42;52.00;;;27.00;;
58250;SDS011;51449;51.676;5.812;2023-05-10T05:24:03;58.73;;;27.37;;
58250;SDS011;51449;51.676;5.812;2023-05-10T05:26:26;55.83;;;27.50;;
58250;SDS011;51449;51.676;5.812;2023-05-10T05:28:48;48.70;;;26.40;;
58250;SDS011;51449;51.676;5.812;2023-05-10T05:31:11;48.10;;;25.50;;
58250;SDS011;51449;51.676;5.812;2023-05-10T05:33:33;56.43;;;25.90;;
58250;SDS011;51449;51.676;5.812;2023-05-10T05:35:55;54.43;;;26.33;;
58250;SDS011;51449;51.676;5.812;2023-05-10T05:38:17;49.07;;;24.77;;
58250;SDS011;51449;51.676;5.812;2023-05-10T05:40:39;51.67;;;25.17;;
58250;SDS011;51449;51.676;5.812;2023-05-10T05:43:00;48.90;;;24.90;;
58250;SDS011;51449;51.676;5.812;2023-05-10T05:45:22;47.87;;;24.03;;
58250;SDS011;51449;51.676;5.812;2023-05-10T05:47:44;48.40;;;24.43;;
58250;SDS011;51449;51.676;5.812;2023-05-10T05:50:06;49.07;;;24.60;;
58250;SDS011;51449;51.676;5.812;2023-05-10T05:52:28;48.20;;;25.23;;
58250;SDS011;51449;51.676;5.812;2023-05-10T05:54:50;46.13;;;23.90;;
58250;SDS011;51449;51.676;5.812;2023-05-10T05:57:12;47.80;;;24.83;;
58250;SDS011;51449;51.676;5.812;2023-05-10T05:59:33;48.40;;;24.60;;
58250;SDS011;51449;51.676;5.812;2023-05-10T06:01:55;46.70;;;25.10;;
58250;SDS011;51449;51.676;5.812;2023-05-10T06:04:17;50.30;;;25.13;;
58250;SDS011;51449;51.676;5.812;2023-05-10T06:06:38;50.77;;;25.00;;
58250;SDS011;51449;51.676;5.812;2023-05-10T06:09:00;49.53;;;25.13;;
58250;SDS011;51449;51.676;5.812;2023-05-10T06:11:22;51.13;;;26.30;;
58250;SDS011;51449;51.676;5.812;2023-05-10T06:13:44;52.80;;;25.93;;
58250;SDS011;51449;51.676;5.812;2023-05-10T06:16:06;50.63;;;24.40;;
58250;SDS011;51449;51.676;5.812;2023-05-10T06:18:28;47.20;;;24.73;;
58250;SDS011;51449;51.676;5.812;2023-05-10T06:20:49;53.60;;;26.27;;
58250;SDS011;51449;51.676;5.812;2023-05-10T06:23:11;49.70;;;25.77;;
58250;SDS011;51449;51.676;5.812;2023-05-10T06:25:33;49.43;;;25.93;;
58250;SDS011;51449;51.676;5.812;2023-05-10T06:27:55;50.37;;;25.47;;
58250;SDS011;51449;51.676;5.812;2023-05-10T06:30:19;46.28;;;24.55;;
58250;SDS011;51449;51.676;5.812;2023-05-10T06:32:41;50.93;;;25.53;;
58250;SDS011;51449;51.676;5.812;2023-05-10T06:35:05;48.53;;;26.00;;
58250;SDS011;51449;51.676;5.812;2023-05-10T06:37:27;48.47;;;26.93;;
58250;SDS011;51449;51.676;5.812;2023-05-10T06:39:49;46.33;;;24.33;;
58250;SDS011;51449;51.676;5.812;2023-05-10T06:42:11;45.27;;;23.90;;
58250;SDS011;51449;51.676;5.812;2023-05-10T06:44:33;45.90;;;25.83;;
58250;SDS011;51449;51.676;5.812;2023-05-10T06:46:54;43.10;;;22.97;;
58250;SDS011;51449;51.676;5.812;2023-05-10T06:49:18;40.70;;;22.30;;
58250;SDS011;51449;51.676;5.812;2023-05-10T06:51:39;41.53;;;23.13;;
58250;SDS011;51449;51.676;5.812;2023-05-10T06:54:02;43.27;;;24.20;;
58250;SDS011;51449;51.676;5.812;2023-05-10T06:56:24;41.97;;;23.63;;
58250;SDS011;51449;51.676;5.812;2023-05-10T06:58:46;44.80;;;23.37;;
58250;SDS011;51449;51.676;5.812;2023-05-10T07:01:08;42.33;;;23.77;;
58250;SDS011;51449;51.676;5.812;2023-05-10T07:03:30;40.30;;;22.13;;
58250;SDS011;51449;51.676;5.812;2023-05-10T07:05:53;41.33;;;23.93;;
58250;SDS011;51449;51.676;5.812;2023-05-10T07:08:14;40.80;;;22.90;;
58250;SDS011;51449;51.676;5.812;2023-05-10T07:10:36;44.27;;;22.63;;
58250;SDS011;51449;51.676;5.812;2023-05-10T07:12:58;39.70;;;22.37;;
58250;SDS011;51449;51.676;5.812;2023-05-10T07:15:20;41.90;;;21.80;;
58250;SDS011;51449;51.676;5.812;2023-05-10T07:17:42;39.20;;;21.87;;
58250;SDS011;51449;51.676;5.812;2023-05-10T07:20:06;38.13;;;22.40;;
58250;SDS011;51449;51.676;5.812;2023-05-10T07:22:29;38.57;;;20.90;;
58250;SDS011;51449;51.676;5.812;2023-05-10T07:24:51;36.20;;;21.17;;
58250;SDS011;51449;51.676;5.812;2023-05-10T07:27:12;38.67;;;21.10;;
58250;SDS011;51449;51.676;5.812;2023-05-10T07:29:34;38.60;;;22.47;;
58250;SDS011;51449;51.676;5.812;2023-05-10T07:31:57;41.40;;;22.63;;
58250;SDS011;51449;51.676;5.812;2023-05-10T07:34:19;38.67;;;21.03;;
58250;SDS011;51449;51.676;5.812;2023-05-10T07:36:41;36.40;;;20.47;;
58250;SDS011;51449;51.676;5.812;2023-05-10T07:39:03;38.50;;;21.80;;
58250;SDS011;51449;51.676;5.812;2023-05-10T07:41:25;39.47;;;21.40;;
58250;SDS011;51449;51.676;5.812;2023-05-10T07:43:47;40.87;;;23.07;;
58250;SDS011;51449;51.676;5.812;2023-05-10T07:46:08;44.90;;;22.07;;
58250;SDS011;51449;51.676;5.812;2023-05-10T07:48:31;40.13;;;22.00;;
58250;SDS011;51449;51.676;5.812;2023-05-10T07:50:53;38.57;;;21.63;;
58250;SDS011;51449;51.676;5.812;2023-05-10T07:53:15;39.83;;;22.37;;
58250;SDS011;51449;51.676;5.812;2023-05-10T07:55:36;41.87;;;22.93;;
58250;SDS011;51449;51.676;5.812;2023-05-10T07:57:58;45.80;;;22.93;;
58250;SDS011;51449;51.676;5.812;2023-05-10T08:00:22;43.15;;;23.48;;
58250;SDS011;51449;51.676;5.812;2023-05-10T08:02:44;44.23;;;23.47;;
58250;SDS011;51449;51.676;5.812;2023-05-10T08:05:06;42.43;;;24.00;;
58250;SDS011;51449;51.676;5.812;2023-05-10T08:07:28;44.97;;;23.93;;
58250;SDS011;51449;51.676;5.812;2023-05-10T08:09:51;46.27;;;23.40;;
58250;SDS011;51449;51.676;5.812;2023-05-10T08:12:13;43.10;;;23.50;;
58250;SDS011;51449;51.676;5.812;2023-05-10T08:14:34;42.30;;;23.73;;
58250;SDS011;51449;51.676;5.812;2023-05-10T08:16:57;44.10;;;24.37;;
58250;SDS011;51449;51.676;5.812;2023-05-10T08:19:19;41.07;;;24.63;;
58250;SDS011;51449;51.676;5.812;2023-05-10T08:21:42;43.00;;;24.00;;
58250;SDS011;51449;51.676;5.812;2023-05-10T08:24:04;44.03;;;24.73;;
58250;SDS011;51449;51.676;5.812;2023-05-10T08:26:27;43.53;;;25.97;;
58250;SDS011;51449;51.676;5.812;2023-05-10T08:28:48;44.23;;;25.13;;
58250;SDS011;51449;51.676;5.812;2023-05-10T08:31:10;39.63;;;23.40;;
58250;SDS011;51449;51.676;5.812;2023-05-10T08:33:33;39.17;;;23.47;;
58250;SDS011;51449;51.676;5.812;2023-05-10T08:35:54;37.07;;;23.63;;
58250;SDS011;51449;51.676;5.812;2023-05-10T08:38:17;34.63;;;20.30;;
58250;SDS011;51449;51.676;5.812;2023-05-10T08:40:41;32.30;;;20.33;;
58250;SDS011;51449;51.676;5.812;2023-05-10T08:43:05;31.38;;;19.48;;
58250;SDS011;51449;51.676;5.812;2023-05-10T08:45:31;29.43;;;19.47;;
58250;SDS011;51449;51.676;5.812;2023-05-10T08:47:58;34.17;;;20.67;;
58250;SDS011;51449;51.676;5.812;2023-05-10T08:50:23;33.20;;;20.33;;
58250;SDS011;51449;51.676;5.812;2023-05-10T08:52:47;32.08;;;19.90;;
58250;SDS011;51449;51.676;5.812;2023-05-10T08:55:15;29.97;;;19.27;;
58250;SDS011;51449;51.676;5.812;2023-05-10T08:57:38;29.65;;;19.58;;
58250;SDS011;51449;51.676;5.812;2023-05-10T09:00:00;31.10;;;19.10;;
58250;SDS011;51449;51.676;5.812;2023-05-10T09:02:23;31.95;;;19.98;;
58250;SDS011;51449;51.676;5.812;2023-05-10T09:04:47;32.53;;;19.33;;
58250;SDS011;51449;51.676;5.812;2023-05-10T09:07:10;35.77;;;22.00;;
58250;SDS011;51449;51.676;5.812;2023-05-10T09:09:33;32.67;;;21.27;;
58250;SDS011;51449;51.676;5.812;2023-05-10T09:11:56;35.88;;;22.52;;
58250;SDS011;51449;51.676;5.812;2023-05-10T09:14:18;37.03;;;23.23;;
58250;SDS011;51449;51.676;5.812;2023-05-10T09:16:42;36.92;;;23.33;;
58250;SDS011;51449;51.676;5.812;2023-05-10T09:19:05;37.80;;;23.53;;
58250;SDS011;51449;51.676;5.812;2023-05-10T09:23:52;35.33;;;22.33;;
58250;SDS011;51449;51.676;5.812;2023-05-10T09:26:16;33.95;;;22.08;;
58250;SDS011;51449;51.676;5.812;2023-05-10T09:31:14;34.50;;;21.80;;
58250;SDS011;51449;51.676;5.812;2023-05-10T09:33:43;33.23;;;21.80;;
58250;SDS011;51449;51.676;5.812;2023-05-10T09:36:09;32.07;;;21.67;;
58250;SDS011;51449;51.676;5.812;2023-05-10T09:38:41;33.37;;;22.00;;
58250;SDS011;51449;51.676;5.812;2023-05-10T09:41:17;32.73;;;21.43;;
58250;SDS011;51449;51.676;5.812;2023-05-10T09:43:49;29.43;;;20.37;;
58250;SDS011;51449;51.676;5.812;2023-05-10T09:46:16;27.97;;;19.77;;
58250;SDS011;51449;51.676;5.812;2023-05-10T09:48:42;30.50;;;20.10;;
58250;SDS011;51449;51.676;5.812;2023-05-10T09:51:08;31.63;;;20.57;;
58250;SDS011;51449;51.676;5.812;2023-05-10T09:53:31;29.90;;;20.23;;
58250;SDS011;51449;51.676;5.812;2023-05-10T09:55:53;32.03;;;20.50;;
58250;SDS011;51449;51.676;5.812;2023-05-10T09:58:15;32.73;;;20.77;;
58250;SDS011;51449;51.676;5.812;2023-05-10T10:00:38;32.30;;;21.90;;
58250;SDS011;51449;51.676;5.812;2023-05-10T10:03:13;30.97;;;19.73;;
58250;SDS011;51449;51.676;5.812;2023-05-10T10:05:41;29.80;;;20.23;;
58250;SDS011;51449;51.676;5.812;2023-05-10T10:08:05;33.45;;;19.80;;
58250;SDS011;51449;51.676;5.812;2023-05-10T10:10:28;26.07;;;18.57;;
58250;SDS011;51449;51.676;5.812;2023-05-10T10:12:51;31.57;;;19.63;;
58250;SDS011;51449;51.676;5.812;2023-05-10T10:15:13;29.63;;;19.83;;
58250;SDS011;51449;51.676;5.812;2023-05-10T10:17:37;28.17;;;19.27;;
58250;SDS011;51449;51.676;5.812;2023-05-10T10:20:02;26.80;;;18.87;;
58250;SDS011;51449;51.676;5.812;2023-05-10T10:22:26;29.67;;;19.90;;
58250;SDS011;51449;51.676;5.812;2023-05-10T10:24:47;30.13;;;19.70;;
58250;SDS011;51449;51.676;5.812;2023-05-10T10:36:00;27.60;;;18.00;;
58250;SDS011;51449;51.676;5.812;2023-05-10T10:38:25;24.13;;;16.93;;
58250;SDS011;51449;51.676;5.812;2023-05-10T10:41:09;25.47;;;17.33;;
58250;SDS011;51449;51.676;5.812;2023-05-10T10:43:47;25.67;;;18.13;;
58250;SDS011;51449;51.676;5.812;2023-05-10T10:46:13;23.33;;;17.27;;
58250;SDS011;51449;51.676;5.812;2023-05-10T10:48:47;22.00;;;16.13;;
58250;SDS011;51449;51.676;5.812;2023-05-10T10:51:29;23.10;;;17.10;;
58250;SDS011;51449;51.676;5.812;2023-05-10T10:53:52;22.53;;;16.90;;
58250;SDS011;51449;51.676;5.812;2023-05-10T10:56:15;22.43;;;16.30;;
58250;SDS011;51449;51.676;5.812;2023-05-10T10:58:48;24.30;;;16.63;;
58250;SDS011;51449;51.676;5.812;2023-05-10T11:01:16;22.07;;;16.77;;
58250;SDS011;51449;51.676;5.812;2023-05-10T11:03:39;22.00;;;17.53;;
58250;SDS011;51449;51.676;5.812;2023-05-10T11:06:02;26.33;;;17.63;;
58250;SDS011;51449;51.676;5.812;2023-05-10T11:08:28;24.10;;;17.43;;
58250;SDS011;51449;51.676;5.812;2023-05-10T11:10:52;24.43;;;17.27;;
58250;SDS011;51449;51.676;5.812;2023-05-10T11:13:38;22.77;;;16.23;;
58250;SDS011;51449;51.676;5.812;2023-05-10T11:16:19;21.60;;;15.02;;
58250;SDS011;51449;51.676;5.812;2023-05-10T11:19:04;23.20;;;15.93;;
58250;SDS011;51449;51.676;5.812;2023-05-10T11:21:31;27.47;;;16.67;;
58250;SDS011;51449;51.676;5.812;2023-05-10T11:23:56;23.27;;;16.75;;
58250;SDS011;51449;51.676;5.812;2023-05-10T11:26:19;22.57;;;16.23;;
58250;SDS011;51449;51.676;5.812;2023-05-10T11:28:45;25.10;;;15.77;;
58250;SDS011;51449;51.676;5.812;2023-05-10T11:31:08;20.55;;;14.35;;
58250;SDS011;51449;51.676;5.812;2023-05-10T11:33:31;17.03;;;12.17;;
58250;SDS011;51449;51.676;5.812;2023-05-10T11:36:18;15.50;;;12.27;;
58250;SDS011;51449;51.676;5.812;2023-05-10T11:38:47;17.17;;;12.83;;
58250;SDS011;51449;51.676;5.812;2023-05-10T11:41:10;17.13;;;11.43;;
58250;SDS011;51449;51.676;5.812;2023-05-10T11:43:33;15.63;;;11.88;;
58250;SDS011;51449;51.676;5.812;2023-05-10T11:45:56;15.87;;;11.90;;
58250;SDS011;51449;51.676;5.812;2023-05-10T11:48:18;17.37;;;12.70;;
58250;SDS011;51449;51.676;5.812;2023-05-10T11:50:43;15.30;;;10.57;;
58250;SDS011;51449;51.676;5.812;2023-05-10T11:53:05;14.17;;;10.73;;
58250;SDS011;51449;51.676;5.812;2023-05-10T11:55:27;16.03;;;11.13;;
58250;SDS011;51449;51.676;5.812;2023-05-10T11:57:52;14.48;;;10.70;;
58250;SDS011;51449;51.676;5.812;2023-05-10T12:00:15;13.77;;;10.02;;
58250;SDS011;51449;51.676;5.812;2023-05-10T12:02:38;13.97;;;11.37;;
58250;SDS011;51449;51.676;5.812;2023-05-10T12:05:01;15.73;;;11.57;;
58250;SDS011;51449;51.676;5.812;2023-05-10T12:07:26;17.60;;;12.10;;
58250;SDS011;51449;51.676;5.812;2023-05-10T12:10:08;14.20;;;11.97;;
58250;SDS011;51449;51.676;5.812;2023-05-10T12:12:37;15.90;;;11.13;;
58250;SDS011;51449;51.676;5.812;2023-05-10T12:15:04;14.30;;;11.10;;
58250;SDS011;51449;51.676;5.812;2023-05-10T12:17:32;16.37;;;11.07;;
58250;SDS011;51449;51.676;5.812;2023-05-10T12:19:53;15.73;;;11.77;;
58250;SDS011;51449;51.676;5.812;2023-05-10T12:22:19;15.87;;;11.63;;
58250;SDS011;51449;51.676;5.812;2023-05-10T12:24:42;16.07;;;11.23;;
58250;SDS011;51449;51.676;5.812;2023-05-10T12:27:10;15.23;;;11.20;;
58250;SDS011;51449;51.676;5.812;2023-05-10T12:29:33;15.27;;;11.27;;
58250;SDS011;51449;51.676;5.812;2023-05-10T12:31:56;14.53;;;10.63;;
58250;SDS011;51449;51.676;5.812;2023-05-10T12:34:29;11.47;;;8.67;;
58250;SDS011;51449;51.676;5.812;2023-05-10T12:36:57;12.87;;;9.83;;
58250;SDS011;51449;51.676;5.812;2023-05-10T12:39:20;17.33;;;13.03;;
58250;SDS011;51449;51.676;5.812;2023-05-10T12:41:42;14.30;;;11.53;;
58250;SDS011;51449;51.676;5.812;2023-05-10T12:44:04;16.13;;;11.73;;
58250;SDS011;51449;51.676;5.812;2023-05-10T12:46:26;16.93;;;12.00;;
58250;SDS011;51449;51.676;5.812;2023-05-10T12:48:49;16.70;;;12.37;;
58250;SDS011;51449;51.676;5.812;2023-05-10T12:51:29;13.93;;;11.10;;
58250;SDS011;51449;51.676;5.812;2023-05-10T12:53:52;14.13;;;11.17;;
58250;SDS011;51449;51.676;5.812;2023-05-10T12:56:14;15.97;;;11.50;;
58250;SDS011;51449;51.676;5.812;2023-05-10T12:58:36;17.83;;;12.50;;
58250;SDS011;51449;51.676;5.812;2023-05-10T13:01:00;13.10;;;10.80;;
58250;SDS011;51449;51.676;5.812;2023-05-10T13:03:22;15.63;;;12.03;;
58250;SDS011;51449;51.676;5.812;2023-05-10T13:05:44;15.00;;;12.20;;
58250;SDS011;51449;51.676;5.812;2023-05-10T13:08:06;14.57;;;10.70;;
58250;SDS011;51449;51.676;5.812;2023-05-10T13:10:29;13.03;;;10.50;;
58250;SDS011;51449;51.676;5.812;2023-05-10T13:12:52;12.87;;;10.37;;
58250;SDS011;51449;51.676;5.812;2023-05-10T13:15:13;14.07;;;11.23;;
58250;SDS011;51449;51.676;5.812;2023-05-10T13:17:35;14.73;;;11.07;;
58250;SDS011;51449;51.676;5.812;2023-05-10T13:20:00;13.75;;;11.27;;
58250;SDS011;51449;51.676;5.812;2023-05-10T13:22:22;14.93;;;12.13;;
58250;SDS011;51449;51.676;5.812;2023-05-10T13:25:00;15.87;;;12.00;;
58250;SDS011;51449;51.676;5.812;2023-05-10T13:27:23;17.47;;;12.73;;
58250;SDS011;51449;51.676;5.812;2023-05-10T13:29:45;16.53;;;11.97;;
58250;SDS011;51449;51.676;5.812;2023-05-10T13:34:31;15.60;;;11.57;;
58250;SDS011;51449;51.676;5.812;2023-05-10T13:36:53;16.30;;;11.63;;
58250;SDS011;51449;51.676;5.812;2023-05-10T13:39:16;17.40;;;12.35;;
58250;SDS011;51449;51.676;5.812;2023-05-10T13:41:38;16.20;;;12.57;;
58250;SDS011;51449;51.676;5.812;2023-05-10T13:44:00;17.10;;;12.67;;
58250;SDS011;51449;51.676;5.812;2023-05-10T13:46:22;17.33;;;12.73;;
58250;SDS011;51449;51.676;5.812;2023-05-10T13:48:45;15.70;;;11.80;;
58250;SDS011;51449;51.676;5.812;2023-05-10T13:51:06;16.77;;;11.87;;
58250;SDS011;51449;51.676;5.812;2023-05-10T13:53:28;13.63;;;11.63;;
58250;SDS011;51449;51.676;5.812;2023-05-10T13:55:50;13.90;;;11.60;;
58250;SDS011;51449;51.676;5.812;2023-05-10T13:58:12;15.23;;;11.60;;
58250;SDS011;51449;51.676;5.812;2023-05-10T14:00:33;13.43;;;11.73;;
58250;SDS011;51449;51.676;5.812;2023-05-10T14:02:55;15.40;;;11.90;;
58250;SDS011;51449;51.676;5.812;2023-05-10T14:05:17;12.47;;;10.17;;
58250;SDS011;51449;51.676;5.812;2023-05-10T14:07:45;6.23;;;5.20;;
58250;SDS011;51449;51.676;5.812;2023-05-10T14:10:07;7.53;;;6.00;;
58250;SDS011;51449;51.676;5.812;2023-05-10T14:12:30;5.63;;;4.87;;
58250;SDS011;51449;51.676;5.812;2023-05-10T14:14:52;5.00;;;4.33;;
58250;SDS011;51449;51.676;5.812;2023-05-10T14:17:13;4.57;;;4.17;;
58250;SDS011;51449;51.676;5.812;2023-05-10T14:19:35;4.87;;;4.33;;
58250;SDS011;51449;51.676;5.812;2023-05-10T14:21:57;4.83;;;3.90;;
58250;SDS011;51449;51.676;5.812;2023-05-10T14:24:19;4.77;;;4.37;;
58250;SDS011;51449;51.676;5.812;2023-05-10T14:26:40;4.17;;;3.77;;
58250;SDS011;51449;51.676;5.812;2023-05-10T14:29:02;4.00;;;3.57;;
58250;SDS011;51449;51.676;5.812;2023-05-10T14:31:24;4.80;;;3.80;;
58250;SDS011;51449;51.676;5.812;2023-05-10T14:33:47;4.30;;;3.90;;